Time,TemperatureF,DewpointF,PressureIn,WindDirection,WindDirectionDegrees,WindSpeedMPH,WindSpeedGustMPH,Humidity,HourlyPrecipIn,Conditions,Clouds,dailyrainin,SolarRadiationWatts/m^2,SoftwareType,DateUTC
2013-08-23 00:01:00,70.0,47.0,-100.00,SSE,149,9.0,16.0,44,0.00,,,0.00,0.000000,,2013-08-23 06:01:00,
2013-08-23 00:42:00,70.0,47.0,-100.00,SSE,149,9.0,16.0,44,0.00,,,0.00,0.000000,,2013-08-23 06:42:00,
2013-08-23 00:52:00,70.0,47.0,-100.00,SSE,149,9.0,16.0,44,0.00,,,0.00,0.000000,,2013-08-23 06:52:00,
2013-08-23 01:01:00,70.0,50.0,-100.00,SE,146,11.0,16.0,50,0.00,,,0.00,0.000000,,2013-08-23 07:01:00,
2013-08-23 01:42:00,70.0,50.0,-100.00,SE,146,11.0,16.0,50,0.00,,,0.00,0.000000,,2013-08-23 07:42:00,
2013-08-23 01:52:00,70.0,50.0,-100.00,SE,146,11.0,16.0,50,0.00,,,0.00,0.000000,,2013-08-23 07:52:00,
2013-08-23 02:01:00,69.0,50.0,-100.00,SSE,148,11.0,19.0,50,0.00,,,0.00,0.000000,,2013-08-23 08:01:00,
2013-08-23 02:42:00,69.0,50.0,-100.00,SSE,148,11.0,19.0,50,0.00,,,0.00,0.000000,,2013-08-23 08:42:00,
2013-08-23 02:52:00,69.0,50.0,-100.00,SSE,148,11.0,19.0,50,0.00,,,0.00,0.000000,,2013-08-23 08:52:00,
2013-08-23 03:01:00,67.0,52.0,-100.00,SSW,201,5.0,18.0,58,0.00,,,0.00,0.000000,,2013-08-23 09:01:00,
2013-08-23 03:43:00,67.0,52.0,-100.00,SSW,201,5.0,18.0,58,0.00,,,0.00,0.000000,,2013-08-23 09:43:00,
2013-08-23 03:53:00,67.0,52.0,-100.00,SSW,201,5.0,18.0,58,0.00,,,0.00,0.000000,,2013-08-23 09:53:00,
2013-08-23 04:01:00,66.0,53.0,-100.00,East,86,6.0,7.0,62,0.00,,,0.00,0.000000,,2013-08-23 10:01:00,
2013-08-23 04:42:00,66.0,53.0,-100.00,East,86,6.0,7.0,62,0.00,,,0.00,0.000000,,2013-08-23 10:42:00,
2013-08-23 04:53:00,66.0,53.0,-100.00,East,86,6.0,7.0,62,0.00,,,0.00,0.000000,,2013-08-23 10:53:00,
2013-08-23 05:01:00,66.0,51.0,-100.00,ESE,102,7.0,10.0,59,0.00,,,0.00,0.000000,,2013-08-23 11:01:00,
2013-08-23 05:42:00,66.0,51.0,-100.00,ESE,102,7.0,10.0,59,0.00,,,0.00,0.000000,,2013-08-23 11:42:00,
2013-08-23 05:53:00,66.0,51.0,-100.00,ESE,102,7.0,10.0,59,0.00,,,0.00,0.000000,,2013-08-23 11:53:00,
2013-08-23 06:01:00,65.0,50.0,-100.00,ESE,117,6.0,12.0,59,0.00,,,0.00,0.000000,,2013-08-23 12:01:00,
2013-08-23 06:22:00,65.0,50.0,-100.00,ESE,117,6.0,12.0,59,0.00,,,0.00,0.000000,,2013-08-23 12:22:00,
2013-08-23 06:32:00,65.0,50.0,-100.00,ESE,117,6.0,12.0,59,0.00,,,0.00,0.000000,,2013-08-23 12:32:00,
2013-08-23 06:42:00,65.0,50.0,-100.00,ESE,117,6.0,12.0,59,0.00,,,0.00,0.000000,,2013-08-23 12:42:00,
2013-08-23 06:52:00,65.0,50.0,-100.00,ESE,117,6.0,12.0,59,0.00,,,0.00,0.000000,,2013-08-23 12:52:00,
2013-08-23 07:01:00,66.0,52.0,-100.00,SE,129,7.0,10.0,60,0.00,,,0.00,9.000000,,2013-08-23 13:01:00,
2013-08-23 07:42:00,66.0,52.0,-100.00,SE,129,7.0,10.0,60,0.00,,,0.00,9.000000,,2013-08-23 13:42:00,
2013-08-23 07:53:00,66.0,52.0,-100.00,SE,129,7.0,10.0,60,0.00,,,0.00,9.000000,,2013-08-23 13:53:00,
2013-08-23 08:01:00,69.0,55.0,-100.00,SE,127,6.0,9.0,62,0.00,,,0.00,116.000000,,2013-08-23 14:01:00,
2013-08-23 08:42:00,69.0,55.0,-100.00,SE,127,6.0,9.0,62,0.00,,,0.00,116.000000,,2013-08-23 14:42:00,
2013-08-23 08:52:00,69.0,55.0,-100.00,SE,127,6.0,9.0,62,0.00,,,0.00,116.000000,,2013-08-23 14:52:00,
2013-08-23 09:01:00,73.0,54.0,-100.00,SE,145,4.0,8.0,52,0.00,,,0.00,336.000000,,2013-08-23 15:01:00,
2013-08-23 09:44:00,73.0,54.0,-100.00,SE,145,4.0,8.0,52,0.00,,,0.00,336.000000,,2013-08-23 15:44:00,
2013-08-23 09:54:00,73.0,54.0,-100.00,SE,145,4.0,8.0,52,0.00,,,0.00,336.000000,,2013-08-23 15:54:00,
2013-08-23 10:01:00,77.0,53.0,-100.00,South,172,5.0,9.0,44,0.00,,,0.00,645.000000,,2013-08-23 16:01:00,
2013-08-23 10:42:00,77.0,53.0,-100.00,South,172,5.0,9.0,44,0.00,,,0.00,645.000000,,2013-08-23 16:42:00,
2013-08-23 10:53:00,77.0,53.0,-100.00,South,172,5.0,9.0,44,0.00,,,0.00,645.000000,,2013-08-23 16:53:00,
2013-08-23 11:01:00,80.0,57.0,-100.00,SW,230,4.0,10.0,45,0.00,,,0.00,643.000000,,2013-08-23 17:01:00,
2013-08-23 11:24:00,80.0,57.0,-100.00,SW,230,4.0,10.0,45,0.00,,,0.00,643.000000,,2013-08-23 17:24:00,
2013-08-23 11:34:00,80.0,57.0,-100.00,SW,230,4.0,10.0,45,0.00,,,0.00,643.000000,,2013-08-23 17:34:00,
2013-08-23 11:43:00,80.0,57.0,-100.00,SW,230,4.0,10.0,45,0.00,,,0.00,643.000000,,2013-08-23 17:43:00,
2013-08-23 11:53:00,80.0,57.0,-100.00,SW,230,4.0,10.0,45,0.00,,,0.00,643.000000,,2013-08-23 17:53:00,
2013-08-23 12:01:00,80.0,53.0,-100.00,SE,144,9.0,17.0,39,0.00,,,0.00,915.000000,,2013-08-23 18:01:00,
2013-08-23 12:42:00,80.0,53.0,-100.00,SE,144,9.0,17.0,39,0.00,,,0.00,915.000000,,2013-08-23 18:42:00,
2013-08-23 12:52:00,80.0,53.0,-100.00,SE,144,9.0,17.0,39,0.00,,,0.00,915.000000,,2013-08-23 18:52:00,
2013-08-23 13:01:00,81.0,52.0,-100.00,SSE,165,10.0,18.0,37,0.00,,,0.00,967.000000,,2013-08-23 19:01:00,
2013-08-23 13:22:00,81.0,52.0,-100.00,SSE,165,10.0,18.0,37,0.00,,,0.00,967.000000,,2013-08-23 19:22:00,
2013-08-23 13:32:00,81.0,52.0,-100.00,SSE,165,10.0,18.0,37,0.00,,,0.00,967.000000,,2013-08-23 19:32:00,
2013-08-23 13:42:00,81.0,52.0,-100.00,SSE,165,10.0,18.0,37,0.00,,,0.00,967.000000,,2013-08-23 19:42:00,
2013-08-23 13:52:00,81.0,52.0,-100.00,SSE,165,10.0,18.0,37,0.00,,,0.00,967.000000,,2013-08-23 19:52:00,
2013-08-23 14:01:00,81.0,52.0,-100.00,SSE,161,11.0,19.0,36,0.00,,,0.00,975.000000,,2013-08-23 20:01:00,
2013-08-23 14:42:00,81.0,52.0,-100.00,SSE,161,11.0,19.0,36,0.00,,,0.00,975.000000,,2013-08-23 20:42:00,
2013-08-23 14:52:00,81.0,52.0,-100.00,SSE,161,11.0,19.0,36,0.00,,,0.00,975.000000,,2013-08-23 20:52:00,
2013-08-23 15:01:00,83.0,50.0,-100.00,SSE,163,10.0,19.0,32,0.00,,,0.00,913.000000,,2013-08-23 21:01:00,
2013-08-23 15:44:00,83.0,50.0,-100.00,SSE,163,10.0,19.0,32,0.00,,,0.00,913.000000,,2013-08-23 21:44:00,
2013-08-23 15:54:00,83.0,50.0,-100.00,SSE,163,10.0,19.0,32,0.00,,,0.00,913.000000,,2013-08-23 21:54:00,
2013-08-23 16:01:00,84.0,50.0,-100.00,SSE,161,12.0,19.0,31,0.00,,,0.00,862.000000,,2013-08-23 22:01:00,
2013-08-23 16:43:00,84.0,50.0,-100.00,SSE,161,12.0,19.0,31,0.00,,,0.00,862.000000,,2013-08-23 22:43:00,
2013-08-23 16:53:00,84.0,50.0,-100.00,SSE,161,12.0,19.0,31,0.00,,,0.00,862.000000,,2013-08-23 22:53:00,
2013-08-23 17:01:00,78.0,50.0,-100.00,East,88,9.0,20.0,38,0.00,,,0.00,522.000000,,2013-08-23 23:01:00,
2013-08-23 17:43:00,78.0,50.0,-100.00,East,88,9.0,20.0,38,0.00,,,0.00,522.000000,,2013-08-23 23:43:00,
2013-08-23 17:54:00,78.0,50.0,-100.00,East,88,9.0,20.0,38,0.00,,,0.00,522.000000,,2013-08-23 23:54:00,
2013-08-23 18:01:00,77.0,51.0,-100.00,East,79,5.0,21.0,41,0.00,,,0.00,291.000000,,2013-08-24 00:01:00,
2013-08-23 18:22:00,77.0,51.0,-100.00,East,79,5.0,21.0,41,0.00,,,0.00,291.000000,,2013-08-24 00:22:00,
2013-08-23 18:32:00,77.0,51.0,-100.00,East,79,5.0,21.0,41,0.00,,,0.00,291.000000,,2013-08-24 00:32:00,
2013-08-23 18:43:00,77.0,51.0,-100.00,East,79,5.0,21.0,41,0.00,,,0.00,291.000000,,2013-08-24 00:43:00,
2013-08-23 18:53:00,77.0,51.0,-100.00,East,79,5.0,21.0,41,0.00,,,0.00,291.000000,,2013-08-24 00:53:00,
2013-08-23 19:01:00,73.0,50.0,-100.00,ESE,118,10.0,21.0,44,0.00,,,0.00,80.000000,,2013-08-24 01:01:00,
2013-08-23 19:42:00,73.0,50.0,-100.00,ESE,118,10.0,21.0,44,0.00,,,0.00,80.000000,,2013-08-24 01:42:00,
2013-08-23 19:53:00,73.0,50.0,-100.00,ESE,118,10.0,21.0,44,0.00,,,0.00,80.000000,,2013-08-24 01:53:00,
2013-08-23 20:01:00,70.0,54.0,-100.00,SE,128,9.0,20.0,56,0.00,,,0.00,10.000000,,2013-08-24 02:01:00,
2013-08-23 20:42:00,70.0,54.0,-100.00,SE,128,9.0,20.0,56,0.00,,,0.00,10.000000,,2013-08-24 02:42:00,
2013-08-23 20:52:00,70.0,54.0,-100.00,SE,128,9.0,20.0,56,0.00,,,0.00,10.000000,,2013-08-24 02:52:00,
2013-08-23 21:01:00,71.0,51.0,-100.00,SE,128,10.0,15.0,50,0.00,,,0.00,0.000000,,2013-08-24 03:01:00,
2013-08-23 21:44:00,71.0,51.0,-100.00,SE,128,10.0,15.0,50,0.00,,,0.00,0.000000,,2013-08-24 03:44:00,
2013-08-23 21:55:00,71.0,51.0,-100.00,SE,128,10.0,15.0,50,0.00,,,0.00,0.000000,,2013-08-24 03:55:00,
2013-08-23 22:01:00,70.0,48.0,-100.00,ESE,119,9.0,17.0,46,0.00,,,0.00,0.000000,,2013-08-24 04:01:00,
2013-08-23 22:44:00,70.0,48.0,-100.00,ESE,119,9.0,17.0,46,0.00,,,0.00,0.000000,,2013-08-24 04:44:00,
2013-08-23 22:53:00,70.0,48.0,-100.00,ESE,119,9.0,17.0,46,0.00,,,0.00,0.000000,,2013-08-24 04:53:00,
2013-08-23 23:01:00,69.0,50.0,-100.00,SE,129,13.0,24.0,50,0.00,,,0.00,0.000000,,2013-08-24 05:01:00,
2013-08-23 23:43:00,69.0,50.0,-100.00,SE,129,13.0,24.0,50,0.00,,,0.00,0.000000,,2013-08-24 05:43:00,
2013-08-23 23:53:00,69.0,50.0,-100.00,SE,129,13.0,24.0,50,0.00,,,0.00,0.000000,,2013-08-24 05:53:00,